Terminal Aerodrome Forecast
Issued by NWS Des Moines, IA

Home | Current Version | Previous Version | Text Only | Print | Product List | Glossary On
Versions: 1 2 3 4 5 6 7 8 9 10 11 12 13 14 15 16 17 18 19 20 21 22 23 24 25 26 27 28 29 30 31 32 33 34 35 36 37 38 39 40 41 42 43 44 45 46 47
000
FTUS43 KDMX 221139
TAFDSM
TAF
KDSM 221139Z 2212/2312 16012KT P6SM VCSH OVC010
     FM221400 14013KT 4SM -RA BR OVC007
     FM221900 12012KT 2SM -RA BR OVC004
     FM230100 08009KT 2SM -RA BR OVC003
     FM230900 36007KT 2SM -RASN BR OVC003=

USA.gov is the U.S. government's official web portal to all federal, state and local government web resources and services.